グアヤキル の空港の天気 - METARとTAF

グアヤキル空港 ( SEGU / GYE ) - エクアドル グアヤキル
飛行場実況気象(Metar)
観測時間07/16 12:00 ECT (07/16 17:00 UTC)
風向・風速南 3m/s
視程10km以上
天気現象
少しの雲 雲底高度 700m
全天の8割程度の雲 雲底高度 1010m
気温28℃
湿度66%
気圧1010hPa
METARSEGU 161700Z METAR 17006KT 120V210 9999 FEW023 BKN033 28/21 Q1010 NOSIG RMK A2983
過去の天気等 Google飛行場航空写真 Wunderground天気予報

過去48時間のMETAR

飛行場予報(TAF)
発表時間: 7/16 05:10 ECT (7/16 10:10 UTC)
予報対象時間: 16日7時 ECT ~ 17日7時 ECT
風向・風速南南東 3m/s
視程10km以上
少しの雲 雲底高度 400m
全天の4割程度の雲 雲底高度 700m
16日12時 ECT ~ 16日14時 ECT に徐々に
風向・風速南西 3m/s
全天の4割程度の雲 雲底高度 790m
16日18時 ECT ~ 16日20時 ECT に徐々に
全天の8割程度の雲 雲底高度 700m
17日1時 ECT ~ 17日2時 ECT に徐々に
少しの雲 雲底高度 400m
全天の8割程度の雲 雲底高度 610m
SEGU 161010Z 1612/1712 15005KT 9999 FEW013 SCT023
BECMG 1617/1619 22006KT SCT026
BECMG 1623/1701 BKN023
BECMG 1706/1707 FEW013 BKN020 TX29/1620Z TN22/1710Z